sensor_id;sensor_type;location;lat;lon;timestamp;P1;durP1;ratioP1;P2;durP2;ratioP2
12635;SDS011;6383;50.830;7.210;2023-10-09T00:00:05;20.77;;;14.90;;
12635;SDS011;6383;50.830;7.210;2023-10-09T00:02:58;25.15;;;14.20;;
12635;SDS011;6383;50.830;7.210;2023-10-09T00:05:27;19.58;;;14.18;;
12635;SDS011;6383;50.830;7.210;2023-10-09T00:08:06;21.80;;;14.02;;
12635;SDS011;6383;50.830;7.210;2023-10-09T00:10:34;17.58;;;13.55;;
12635;SDS011;6383;50.830;7.210;2023-10-09T00:13:10;17.33;;;13.13;;
12635;SDS011;6383;50.830;7.210;2023-10-09T00:15:38;18.88;;;13.95;;
12635;SDS011;6383;50.830;7.210;2023-10-09T00:18:09;17.15;;;13.10;;
12635;SDS011;6383;50.830;7.210;2023-10-09T00:20:39;20.30;;;13.20;;
12635;SDS011;6383;50.830;7.210;2023-10-09T00:23:10;19.55;;;13.13;;
12635;SDS011;6383;50.830;7.210;2023-10-09T00:25:48;18.98;;;13.48;;
12635;SDS011;6383;50.830;7.210;2023-10-09T00:28:35;16.30;;;12.52;;
12635;SDS011;6383;50.830;7.210;2023-10-09T00:31:05;17.40;;;13.10;;
12635;SDS011;6383;50.830;7.210;2023-10-09T00:33:41;18.05;;;12.63;;
12635;SDS011;6383;50.830;7.210;2023-10-09T00:36:09;18.83;;;12.20;;
12635;SDS011;6383;50.830;7.210;2023-10-09T00:38:45;16.13;;;12.82;;
12635;SDS011;6383;50.830;7.210;2023-10-09T00:41:16;21.58;;;13.45;;
12635;SDS011;6383;50.830;7.210;2023-10-09T00:43:50;17.73;;;12.35;;
12635;SDS011;6383;50.830;7.210;2023-10-09T00:46:20;19.10;;;12.90;;
12635;SDS011;6383;50.830;7.210;2023-10-09T00:48:57;16.83;;;12.00;;
12635;SDS011;6383;50.830;7.210;2023-10-09T00:51:29;20.15;;;11.57;;
12635;SDS011;6383;50.830;7.210;2023-10-09T00:54:03;20.48;;;11.90;;
12635;SDS011;6383;50.830;7.210;2023-10-09T00:56:41;19.63;;;11.23;;
12635;SDS011;6383;50.830;7.210;2023-10-09T00:59:13;18.88;;;11.80;;
12635;SDS011;6383;50.830;7.210;2023-10-09T01:01:47;19.73;;;11.93;;
12635;SDS011;6383;50.830;7.210;2023-10-09T01:04:23;17.85;;;11.63;;
12635;SDS011;6383;50.830;7.210;2023-10-09T01:06:53;15.87;;;11.27;;
12635;SDS011;6383;50.830;7.210;2023-10-09T01:09:36;17.20;;;12.17;;
12635;SDS011;6383;50.830;7.210;2023-10-09T01:12:05;14.32;;;10.82;;
12635;SDS011;6383;50.830;7.210;2023-10-09T01:14:35;17.02;;;11.32;;
12635;SDS011;6383;50.830;7.210;2023-10-09T01:17:05;15.73;;;11.40;;
12635;SDS011;6383;50.830;7.210;2023-10-09T01:19:57;16.25;;;11.15;;
12635;SDS011;6383;50.830;7.210;2023-10-09T01:22:29;19.52;;;12.02;;
12635;SDS011;6383;50.830;7.210;2023-10-09T01:24:59;15.80;;;10.68;;
12635;SDS011;6383;50.830;7.210;2023-10-09T01:27:29;14.30;;;11.13;;
12635;SDS011;6383;50.830;7.210;2023-10-09T01:29:59;14.85;;;11.18;;
12635;SDS011;6383;50.830;7.210;2023-10-09T01:32:28;15.48;;;11.18;;
12635;SDS011;6383;50.830;7.210;2023-10-09T01:34:57;14.15;;;11.10;;
12635;SDS011;6383;50.830;7.210;2023-10-09T01:37:27;12.90;;;10.15;;
12635;SDS011;6383;50.830;7.210;2023-10-09T01:39:56;15.48;;;10.30;;
12635;SDS011;6383;50.830;7.210;2023-10-09T01:42:26;15.38;;;10.27;;
12635;SDS011;6383;50.830;7.210;2023-10-09T01:45:00;14.95;;;9.93;;
12635;SDS011;6383;50.830;7.210;2023-10-09T01:47:38;13.27;;;10.23;;
12635;SDS011;6383;50.830;7.210;2023-10-09T01:50:06;13.52;;;9.73;;
12635;SDS011;6383;50.830;7.210;2023-10-09T01:52:38;14.73;;;9.95;;
12635;SDS011;6383;50.830;7.210;2023-10-09T01:55:07;19.23;;;10.75;;
12635;SDS011;6383;50.830;7.210;2023-10-09T01:57:40;13.65;;;9.93;;
12635;SDS011;6383;50.830;7.210;2023-10-09T02:00:12;16.42;;;9.65;;
12635;SDS011;6383;50.830;7.210;2023-10-09T02:02:50;13.23;;;9.43;;
12635;SDS011;6383;50.830;7.210;2023-10-09T02:05:19;13.23;;;8.98;;
12635;SDS011;6383;50.830;7.210;2023-10-09T02:07:52;15.32;;;9.82;;
12635;SDS011;6383;50.830;7.210;2023-10-09T02:10:20;15.88;;;10.25;;
12635;SDS011;6383;50.830;7.210;2023-10-09T02:12:53;14.15;;;9.52;;
12635;SDS011;6383;50.830;7.210;2023-10-09T02:15:26;15.13;;;9.60;;
12635;SDS011;6383;50.830;7.210;2023-10-09T02:18:19;15.43;;;9.90;;
12635;SDS011;6383;50.830;7.210;2023-10-09T02:21:08;12.82;;;9.23;;
12635;SDS011;6383;50.830;7.210;2023-10-09T02:23:41;17.77;;;10.40;;
12635;SDS011;6383;50.830;7.210;2023-10-09T02:26:17;16.13;;;9.73;;
12635;SDS011;6383;50.830;7.210;2023-10-09T02:28:53;14.23;;;9.25;;
12635;SDS011;6383;50.830;7.210;2023-10-09T02:31:27;13.52;;;10.10;;
12635;SDS011;6383;50.830;7.210;2023-10-09T02:34:01;13.30;;;9.45;;
12635;SDS011;6383;50.830;7.210;2023-10-09T02:36:35;11.53;;;8.87;;
12635;SDS011;6383;50.830;7.210;2023-10-09T02:39:09;11.77;;;8.90;;
12635;SDS011;6383;50.830;7.210;2023-10-09T02:41:50;13.93;;;8.83;;
12635;SDS011;6383;50.830;7.210;2023-10-09T02:44:23;10.80;;;9.27;;
12635;SDS011;6383;50.830;7.210;2023-10-09T02:46:53;15.73;;;9.35;;
12635;SDS011;6383;50.830;7.210;2023-10-09T02:49:24;12.75;;;9.07;;
12635;SDS011;6383;50.830;7.210;2023-10-09T02:51:54;12.13;;;9.45;;
12635;SDS011;6383;50.830;7.210;2023-10-09T02:54:23;16.77;;;9.50;;
12635;SDS011;6383;50.830;7.210;2023-10-09T02:57:01;13.18;;;8.60;;
12635;SDS011;6383;50.830;7.210;2023-10-09T02:59:36;18.73;;;10.45;;
12635;SDS011;6383;50.830;7.210;2023-10-09T03:02:08;12.90;;;9.93;;
12635;SDS011;6383;50.830;7.210;2023-10-09T03:04:38;15.27;;;9.77;;
12635;SDS011;6383;50.830;7.210;2023-10-09T03:07:08;14.88;;;8.95;;
12635;SDS011;6383;50.830;7.210;2023-10-09T03:09:38;16.08;;;9.88;;
12635;SDS011;6383;50.830;7.210;2023-10-09T03:12:07;15.18;;;9.40;;
12635;SDS011;6383;50.830;7.210;2023-10-09T03:14:39;11.15;;;9.15;;
12635;SDS011;6383;50.830;7.210;2023-10-09T03:17:09;12.15;;;9.60;;
12635;SDS011;6383;50.830;7.210;2023-10-09T03:19:39;17.27;;;9.20;;
12635;SDS011;6383;50.830;7.210;2023-10-09T03:22:10;14.82;;;8.95;;
12635;SDS011;6383;50.830;7.210;2023-10-09T03:24:38;14.88;;;8.73;;
12635;SDS011;6383;50.830;7.210;2023-10-09T03:27:09;11.20;;;8.45;;
12635;SDS011;6383;50.830;7.210;2023-10-09T03:29:38;14.07;;;9.27;;
12635;SDS011;6383;50.830;7.210;2023-10-09T03:32:12;21.70;;;8.77;;
12635;SDS011;6383;50.830;7.210;2023-10-09T03:34:41;16.73;;;9.63;;
12635;SDS011;6383;50.830;7.210;2023-10-09T03:37:11;14.63;;;9.05;;
12635;SDS011;6383;50.830;7.210;2023-10-09T03:39:49;10.82;;;8.35;;
12635;SDS011;6383;50.830;7.210;2023-10-09T03:42:21;11.77;;;7.97;;
12635;SDS011;6383;50.830;7.210;2023-10-09T03:44:53;12.02;;;8.75;;
12635;SDS011;6383;50.830;7.210;2023-10-09T03:47:25;13.05;;;8.07;;
12635;SDS011;6383;50.830;7.210;2023-10-09T03:49:53;9.65;;;8.40;;
12635;SDS011;6383;50.830;7.210;2023-10-09T03:52:23;14.00;;;8.93;;
12635;SDS011;6383;50.830;7.210;2023-10-09T03:54:53;11.50;;;8.55;;
12635;SDS011;6383;50.830;7.210;2023-10-09T03:57:23;13.77;;;8.32;;
12635;SDS011;6383;50.830;7.210;2023-10-09T03:59:50;11.48;;;8.63;;
12635;SDS011;6383;50.830;7.210;2023-10-09T04:02:20;11.77;;;8.05;;
12635;SDS011;6383;50.830;7.210;2023-10-09T04:04:50;11.68;;;8.15;;
12635;SDS011;6383;50.830;7.210;2023-10-09T04:07:17;13.03;;;7.87;;
12635;SDS011;6383;50.830;7.210;2023-10-09T04:09:46;9.93;;;8.05;;
12635;SDS011;6383;50.830;7.210;2023-10-09T04:12:21;10.83;;;8.67;;
12635;SDS011;6383;50.830;7.210;2023-10-09T04:14:51;12.88;;;7.93;;
12635;SDS011;6383;50.830;7.210;2023-10-09T04:17:25;12.45;;;8.15;;
12635;SDS011;6383;50.830;7.210;2023-10-09T04:20:06;9.60;;;8.05;;
12635;SDS011;6383;50.830;7.210;2023-10-09T04:23:06;13.43;;;8.02;;
12635;SDS011;6383;50.830;7.210;2023-10-09T04:25:36;9.88;;;7.70;;
12635;SDS011;6383;50.830;7.210;2023-10-09T04:28:10;14.52;;;8.15;;
12635;SDS011;6383;50.830;7.210;2023-10-09T04:30:46;10.02;;;7.70;;
12635;SDS011;6383;50.830;7.210;2023-10-09T04:33:21;13.10;;;7.93;;
12635;SDS011;6383;50.830;7.210;2023-10-09T04:36:02;13.65;;;7.55;;
12635;SDS011;6383;50.830;7.210;2023-10-09T04:38:51;10.23;;;7.25;;
12635;SDS011;6383;50.830;7.210;2023-10-09T04:41:41;13.23;;;7.50;;
12635;SDS011;6383;50.830;7.210;2023-10-09T04:44:42;12.50;;;7.28;;
12635;SDS011;6383;50.830;7.210;2023-10-09T04:47:27;11.48;;;7.82;;
12635;SDS011;6383;50.830;7.210;2023-10-09T04:50:05;9.68;;;8.15;;
12635;SDS011;6383;50.830;7.210;2023-10-09T04:52:37;14.00;;;8.18;;
12635;SDS011;6383;50.830;7.210;2023-10-09T04:55:21;10.77;;;8.05;;
12635;SDS011;6383;50.830;7.210;2023-10-09T04:57:53;12.55;;;8.13;;
12635;SDS011;6383;50.830;7.210;2023-10-09T05:00:37;11.80;;;8.50;;
12635;SDS011;6383;50.830;7.210;2023-10-09T05:03:30;9.77;;;7.50;;
12635;SDS011;6383;50.830;7.210;2023-10-09T05:06:13;10.25;;;8.38;;
12635;SDS011;6383;50.830;7.210;2023-10-09T05:09:09;11.50;;;8.18;;
12635;SDS011;6383;50.830;7.210;2023-10-09T05:11:38;10.32;;;7.90;;
12635;SDS011;6383;50.830;7.210;2023-10-09T05:14:35;14.95;;;8.80;;
12635;SDS011;6383;50.830;7.210;2023-10-09T05:17:06;11.27;;;8.68;;
12635;SDS011;6383;50.830;7.210;2023-10-09T05:19:42;10.13;;;7.50;;
12635;SDS011;6383;50.830;7.210;2023-10-09T05:22:22;12.30;;;8.13;;
12635;SDS011;6383;50.830;7.210;2023-10-09T05:25:06;11.25;;;8.32;;
12635;SDS011;6383;50.830;7.210;2023-10-09T05:28:01;13.02;;;9.52;;
12635;SDS011;6383;50.830;7.210;2023-10-09T05:30:50;11.38;;;8.10;;
12635;SDS011;6383;50.830;7.210;2023-10-09T05:33:28;14.98;;;8.60;;
12635;SDS011;6383;50.830;7.210;2023-10-09T05:35:57;12.98;;;7.75;;
12635;SDS011;6383;50.830;7.210;2023-10-09T05:38:42;13.60;;;8.32;;
12635;SDS011;6383;50.830;7.210;2023-10-09T05:41:26;9.50;;;7.35;;
12635;SDS011;6383;50.830;7.210;2023-10-09T05:44:14;11.35;;;7.03;;
12635;SDS011;6383;50.830;7.210;2023-10-09T05:47:00;11.10;;;6.88;;
12635;SDS011;6383;50.830;7.210;2023-10-09T05:49:46;13.82;;;7.60;;
12635;SDS011;6383;50.830;7.210;2023-10-09T05:52:22;11.35;;;8.23;;
12635;SDS011;6383;50.830;7.210;2023-10-09T05:55:12;10.68;;;8.70;;
12635;SDS011;6383;50.830;7.210;2023-10-09T05:58:04;11.32;;;8.63;;
12635;SDS011;6383;50.830;7.210;2023-10-09T06:01:01;9.88;;;8.27;;
12635;SDS011;6383;50.830;7.210;2023-10-09T06:03:46;11.20;;;8.88;;
12635;SDS011;6383;50.830;7.210;2023-10-09T06:06:21;11.82;;;8.55;;
12635;SDS011;6383;50.830;7.210;2023-10-09T06:09:09;13.82;;;9.20;;
12635;SDS011;6383;50.830;7.210;2023-10-09T06:11:56;12.40;;;9.20;;
12635;SDS011;6383;50.830;7.210;2023-10-09T06:14:44;10.73;;;9.23;;
12635;SDS011;6383;50.830;7.210;2023-10-09T06:17:24;9.73;;;8.73;;
12635;SDS011;6383;50.830;7.210;2023-10-09T06:19:54;11.63;;;9.25;;
12635;SDS011;6383;50.830;7.210;2023-10-09T06:22:37;10.03;;;8.43;;
12635;SDS011;6383;50.830;7.210;2023-10-09T06:25:24;12.77;;;8.07;;
12635;SDS011;6383;50.830;7.210;2023-10-09T06:28:01;12.65;;;9.02;;
12635;SDS011;6383;50.830;7.210;2023-10-09T06:30:30;9.63;;;8.18;;
12635;SDS011;6383;50.830;7.210;2023-10-09T06:33:00;10.75;;;8.48;;
12635;SDS011;6383;50.830;7.210;2023-10-09T06:35:47;8.48;;;7.47;;
12635;SDS011;6383;50.830;7.210;2023-10-09T06:38:20;10.98;;;7.85;;
12635;SDS011;6383;50.830;7.210;2023-10-09T06:40:51;9.65;;;8.20;;
12635;SDS011;6383;50.830;7.210;2023-10-09T06:43:46;14.90;;;8.68;;
12635;SDS011;6383;50.830;7.210;2023-10-09T06:46:20;11.48;;;8.15;;
12635;SDS011;6383;50.830;7.210;2023-10-09T06:49:07;9.33;;;8.33;;
12635;SDS011;6383;50.830;7.210;2023-10-09T06:51:56;13.20;;;8.80;;
12635;SDS011;6383;50.830;7.210;2023-10-09T06:54:41;13.18;;;8.85;;
12635;SDS011;6383;50.830;7.210;2023-10-09T06:57:17;13.45;;;8.35;;
12635;SDS011;6383;50.830;7.210;2023-10-09T07:00:11;11.73;;;8.43;;
12635;SDS011;6383;50.830;7.210;2023-10-09T07:02:56;9.35;;;7.95;;
12635;SDS011;6383;50.830;7.210;2023-10-09T07:05:24;16.48;;;8.65;;
12635;SDS011;6383;50.830;7.210;2023-10-09T07:08:00;16.75;;;8.20;;
12635;SDS011;6383;50.830;7.210;2023-10-09T07:10:49;11.00;;;8.35;;
12635;SDS011;6383;50.830;7.210;2023-10-09T07:13:30;11.95;;;8.20;;
12635;SDS011;6383;50.830;7.210;2023-10-09T07:16:06;11.77;;;7.80;;
12635;SDS011;6383;50.830;7.210;2023-10-09T07:18:52;9.52;;;7.88;;
12635;SDS011;6383;50.830;7.210;2023-10-09T07:21:22;10.23;;;7.97;;
12635;SDS011;6383;50.830;7.210;2023-10-09T07:23:56;11.15;;;8.45;;
12635;SDS011;6383;50.830;7.210;2023-10-09T07:26:26;8.13;;;7.32;;
12635;SDS011;6383;50.830;7.210;2023-10-09T07:29:05;11.52;;;8.15;;
12635;SDS011;6383;50.830;7.210;2023-10-09T07:31:51;9.77;;;8.10;;
12635;SDS011;6383;50.830;7.210;2023-10-09T07:34:24;10.77;;;8.27;;
12635;SDS011;6383;50.830;7.210;2023-10-09T07:37:00;12.05;;;8.50;;
12635;SDS011;6383;50.830;7.210;2023-10-09T07:39:30;10.43;;;7.90;;
12635;SDS011;6383;50.830;7.210;2023-10-09T07:42:04;9.40;;;7.78;;
12635;SDS011;6383;50.830;7.210;2023-10-09T07:44:45;10.88;;;8.73;;
12635;SDS011;6383;50.830;7.210;2023-10-09T07:47:21;9.68;;;7.55;;
12635;SDS011;6383;50.830;7.210;2023-10-09T07:50:13;10.60;;;7.38;;
12635;SDS011;6383;50.830;7.210;2023-10-09T07:52:48;9.07;;;7.50;;
12635;SDS011;6383;50.830;7.210;2023-10-09T07:55:18;8.75;;;7.82;;
12635;SDS011;6383;50.830;7.210;2023-10-09T07:58:06;10.13;;;7.30;;
12635;SDS011;6383;50.830;7.210;2023-10-09T08:00:37;12.10;;;7.70;;
12635;SDS011;6383;50.830;7.210;2023-10-09T08:03:34;9.83;;;7.07;;
12635;SDS011;6383;50.830;7.210;2023-10-09T08:06:02;8.17;;;7.00;;
12635;SDS011;6383;50.830;7.210;2023-10-09T08:08:49;9.77;;;7.63;;
12635;SDS011;6383;50.830;7.210;2023-10-09T08:11:44;12.43;;;7.45;;
12635;SDS011;6383;50.830;7.210;2023-10-09T08:14:39;9.63;;;7.20;;
12635;SDS011;6383;50.830;7.210;2023-10-09T08:17:13;7.78;;;6.90;;
12635;SDS011;6383;50.830;7.210;2023-10-09T08:19:48;10.25;;;6.95;;
12635;SDS011;6383;50.830;7.210;2023-10-09T08:22:24;10.02;;;7.03;;
12635;SDS011;6383;50.830;7.210;2023-10-09T08:25:17;10.27;;;7.25;;
12635;SDS011;6383;50.830;7.210;2023-10-09T08:27:57;9.35;;;7.15;;
12635;SDS011;6383;50.830;7.210;2023-10-09T08:30:45;7.78;;;7.03;;
12635;SDS011;6383;50.830;7.210;2023-10-09T08:33:31;13.30;;;7.60;;
12635;SDS011;6383;50.830;7.210;2023-10-09T08:36:09;12.20;;;7.13;;
12635;SDS011;6383;50.830;7.210;2023-10-09T08:38:41;12.43;;;7.13;;
12635;SDS011;6383;50.830;7.210;2023-10-09T08:41:11;10.57;;;7.60;;
12635;SDS011;6383;50.830;7.210;2023-10-09T08:43:50;9.05;;;6.88;;
12635;SDS011;6383;50.830;7.210;2023-10-09T08:46:21;10.15;;;7.45;;
12635;SDS011;6383;50.830;7.210;2023-10-09T08:48:54;10.57;;;7.38;;
12635;SDS011;6383;50.830;7.210;2023-10-09T08:51:25;9.30;;;7.70;;
12635;SDS011;6383;50.830;7.210;2023-10-09T08:53:57;12.73;;;7.55;;
12635;SDS011;6383;50.830;7.210;2023-10-09T08:56:26;13.60;;;7.85;;
12635;SDS011;6383;50.830;7.210;2023-10-09T08:58:55;11.57;;;7.10;;
12635;SDS011;6383;50.830;7.210;2023-10-09T09:01:26;8.10;;;6.50;;
12635;SDS011;6383;50.830;7.210;2023-10-09T09:03:59;9.98;;;7.50;;
12635;SDS011;6383;50.830;7.210;2023-10-09T09:06:37;10.23;;;6.60;;
12635;SDS011;6383;50.830;7.210;2023-10-09T09:09:11;14.20;;;7.35;;
12635;SDS011;6383;50.830;7.210;2023-10-09T09:11:41;16.27;;;7.65;;
12635;SDS011;6383;50.830;7.210;2023-10-09T09:14:16;11.07;;;7.28;;
12635;SDS011;6383;50.830;7.210;2023-10-09T09:16:49;11.20;;;7.95;;
12635;SDS011;6383;50.830;7.210;2023-10-09T09:19:18;12.48;;;7.93;;
12635;SDS011;6383;50.830;7.210;2023-10-09T09:21:49;14.90;;;7.95;;
12635;SDS011;6383;50.830;7.210;2023-10-09T09:24:21;12.30;;;7.95;;
12635;SDS011;6383;50.830;7.210;2023-10-09T09:27:01;14.57;;;8.07;;
12635;SDS011;6383;50.830;7.210;2023-10-09T09:29:39;11.27;;;7.63;;
12635;SDS011;6383;50.830;7.210;2023-10-09T09:32:09;11.85;;;7.93;;
12635;SDS011;6383;50.830;7.210;2023-10-09T09:34:46;15.93;;;7.13;;
12635;SDS011;6383;50.830;7.210;2023-10-09T09:37:20;11.15;;;7.20;;
12635;SDS011;6383;50.830;7.210;2023-10-09T09:39:56;12.15;;;7.22;;
12635;SDS011;6383;50.830;7.210;2023-10-09T09:42:28;12.15;;;7.20;;
12635;SDS011;6383;50.830;7.210;2023-10-09T09:45:00;13.07;;;7.10;;
12635;SDS011;6383;50.830;7.210;2023-10-09T09:47:30;10.82;;;7.20;;
12635;SDS011;6383;50.830;7.210;2023-10-09T09:50:04;15.55;;;7.40;;
12635;SDS011;6383;50.830;7.210;2023-10-09T09:52:42;14.02;;;7.25;;
12635;SDS011;6383;50.830;7.210;2023-10-09T09:55:10;12.95;;;7.05;;
12635;SDS011;6383;50.830;7.210;2023-10-09T09:57:45;11.48;;;6.85;;
12635;SDS011;6383;50.830;7.210;2023-10-09T10:00:19;10.13;;;6.47;;
12635;SDS011;6383;50.830;7.210;2023-10-09T10:02:57;11.82;;;6.65;;
12635;SDS011;6383;50.830;7.210;2023-10-09T10:05:28;9.37;;;6.50;;
12635;SDS011;6383;50.830;7.210;2023-10-09T10:08:00;12.07;;;6.03;;
12635;SDS011;6383;50.830;7.210;2023-10-09T10:10:34;10.10;;;6.50;;
12635;SDS011;6383;50.830;7.210;2023-10-09T10:13:06;9.40;;;6.05;;
12635;SDS011;6383;50.830;7.210;2023-10-09T10:15:57;12.45;;;6.70;;
12635;SDS011;6383;50.830;7.210;2023-10-09T10:18:53;9.40;;;5.90;;
12635;SDS011;6383;50.830;7.210;2023-10-09T10:21:27;12.48;;;6.57;;
12635;SDS011;6383;50.830;7.210;2023-10-09T10:27:25;13.15;;;7.38;;
12635;SDS011;6383;50.830;7.210;2023-10-09T10:33:01;10.50;;;5.97;;
12635;SDS011;6383;50.830;7.210;2023-10-09T10:35:48;13.20;;;6.15;;
12635;SDS011;6383;50.830;7.210;2023-10-09T10:38:24;8.07;;;6.07;;
12635;SDS011;6383;50.830;7.210;2023-10-09T10:40:53;10.32;;;5.85;;
12635;SDS011;6383;50.830;7.210;2023-10-09T10:43:30;9.60;;;6.05;;
12635;SDS011;6383;50.830;7.210;2023-10-09T10:46:15;11.68;;;6.18;;
12635;SDS011;6383;50.830;7.210;2023-10-09T10:48:51;12.30;;;5.30;;
12635;SDS011;6383;50.830;7.210;2023-10-09T10:51:26;8.32;;;5.32;;
12635;SDS011;6383;50.830;7.210;2023-10-09T10:54:01;10.73;;;5.40;;
12635;SDS011;6383;50.830;7.210;2023-10-09T10:56:44;7.68;;;5.43;;
12635;SDS011;6383;50.830;7.210;2023-10-09T10:59:16;10.00;;;6.22;;
12635;SDS011;6383;50.830;7.210;2023-10-09T11:01:50;10.45;;;5.85;;
12635;SDS011;6383;50.830;7.210;2023-10-09T11:04:26;10.90;;;5.80;;
12635;SDS011;6383;50.830;7.210;2023-10-09T11:07:09;8.55;;;5.15;;
12635;SDS011;6383;50.830;7.210;2023-10-09T11:09:43;8.70;;;5.55;;
12635;SDS011;6383;50.830;7.210;2023-10-09T11:12:42;8.55;;;5.60;;
12635;SDS011;6383;50.830;7.210;2023-10-09T11:15:14;9.90;;;5.93;;
12635;SDS011;6383;50.830;7.210;2023-10-09T11:18:07;8.52;;;5.20;;
12635;SDS011;6383;50.830;7.210;2023-10-09T11:20:44;11.37;;;5.47;;
12635;SDS011;6383;50.830;7.210;2023-10-09T11:23:24;9.20;;;5.55;;
12635;SDS011;6383;50.830;7.210;2023-10-09T11:26:04;9.43;;;4.95;;
12635;SDS011;6383;50.830;7.210;2023-10-09T11:29:09;8.00;;;5.50;;
12635;SDS011;6383;50.830;7.210;2023-10-09T11:31:56;8.07;;;5.22;;
12635;SDS011;6383;50.830;7.210;2023-10-09T11:34:28;9.85;;;5.07;;
12635;SDS011;6383;50.830;7.210;2023-10-09T11:36:59;11.73;;;6.03;;
12635;SDS011;6383;50.830;7.210;2023-10-09T11:39:29;10.65;;;5.57;;
12635;SDS011;6383;50.830;7.210;2023-10-09T11:42:03;9.05;;;5.78;;
12635;SDS011;6383;50.830;7.210;2023-10-09T11:44:35;8.90;;;5.53;;
12635;SDS011;6383;50.830;7.210;2023-10-09T11:47:08;10.40;;;6.35;;
12635;SDS011;6383;50.830;7.210;2023-10-09T11:49:52;10.27;;;6.40;;
12635;SDS011;6383;50.830;7.210;2023-10-09T11:52:36;9.90;;;5.60;;
12635;SDS011;6383;50.830;7.210;2023-10-09T11:55:06;8.20;;;5.68;;
12635;SDS011;6383;50.830;7.210;2023-10-09T11:57:35;12.93;;;6.43;;
12635;SDS011;6383;50.830;7.210;2023-10-09T12:00:05;8.80;;;6.18;;
12635;SDS011;6383;50.830;7.210;2023-10-09T12:02:53;10.47;;;5.70;;
12635;SDS011;6383;50.830;7.210;2023-10-09T12:05:23;9.27;;;5.55;;
12635;SDS011;6383;50.830;7.210;2023-10-09T12:07:53;8.32;;;5.60;;
12635;SDS011;6383;50.830;7.210;2023-10-09T12:10:23;12.05;;;6.10;;
12635;SDS011;6383;50.830;7.210;2023-10-09T12:12:53;13.65;;;5.40;;
12635;SDS011;6383;50.830;7.210;2023-10-09T12:15:23;9.97;;;5.73;;
12635;SDS011;6383;50.830;7.210;2023-10-09T12:17:53;15.20;;;6.25;;
12635;SDS011;6383;50.830;7.210;2023-10-09T12:20:24;9.18;;;5.38;;
12635;SDS011;6383;50.830;7.210;2023-10-09T12:22:59;9.00;;;5.67;;
12635;SDS011;6383;50.830;7.210;2023-10-09T12:25:28;9.38;;;5.50;;
12635;SDS011;6383;50.830;7.210;2023-10-09T12:27:59;12.03;;;5.80;;
12635;SDS011;6383;50.830;7.210;2023-10-09T12:30:29;10.68;;;6.32;;
12635;SDS011;6383;50.830;7.210;2023-10-09T12:33:06;11.45;;;6.13;;
12635;SDS011;6383;50.830;7.210;2023-10-09T12:35:58;10.88;;;6.00;;
12635;SDS011;6383;50.830;7.210;2023-10-09T12:38:34;14.30;;;5.83;;
12635;SDS011;6383;50.830;7.210;2023-10-09T12:41:04;8.57;;;5.30;;
12635;SDS011;6383;50.830;7.210;2023-10-09T12:43:49;11.45;;;5.78;;
12635;SDS011;6383;50.830;7.210;2023-10-09T12:46:21;12.88;;;5.25;;
12635;SDS011;6383;50.830;7.210;2023-10-09T12:48:55;10.07;;;5.63;;
12635;SDS011;6383;50.830;7.210;2023-10-09T12:51:30;10.48;;;6.20;;
12635;SDS011;6383;50.830;7.210;2023-10-09T12:53:57;13.57;;;6.83;;
12635;SDS011;6383;50.830;7.210;2023-10-09T12:56:28;13.35;;;6.13;;
12635;SDS011;6383;50.830;7.210;2023-10-09T12:59:08;12.05;;;5.97;;
12635;SDS011;6383;50.830;7.210;2023-10-09T13:01:40;9.88;;;5.70;;
12635;SDS011;6383;50.830;7.210;2023-10-09T13:04:13;9.90;;;5.67;;
12635;SDS011;6383;50.830;7.210;2023-10-09T13:06:48;10.93;;;5.07;;
12635;SDS011;6383;50.830;7.210;2023-10-09T13:09:33;11.32;;;4.82;;
12635;SDS011;6383;50.830;7.210;2023-10-09T13:12:04;10.82;;;5.47;;
12635;SDS011;6383;50.830;7.210;2023-10-09T13:14:35;10.57;;;5.73;;
12635;SDS011;6383;50.830;7.210;2023-10-09T13:17:09;9.88;;;4.70;;
12635;SDS011;6383;50.830;7.210;2023-10-09T13:19:43;9.15;;;4.97;;
12635;SDS011;6383;50.830;7.210;2023-10-09T13:22:17;10.15;;;5.00;;
12635;SDS011;6383;50.830;7.210;2023-10-09T13:24:48;14.18;;;4.95;;
12635;SDS011;6383;50.830;7.210;2023-10-09T13:27:32;9.90;;;5.23;;
12635;SDS011;6383;50.830;7.210;2023-10-09T13:30:01;8.20;;;4.37;;
12635;SDS011;6383;50.830;7.210;2023-10-09T13:32:32;9.43;;;4.80;;
12635;SDS011;6383;50.830;7.210;2023-10-09T13:35:06;11.20;;;5.30;;
12635;SDS011;6383;50.830;7.210;2023-10-09T13:37:37;8.60;;;4.93;;
12635;SDS011;6383;50.830;7.210;2023-10-09T13:40:06;10.90;;;4.93;;
12635;SDS011;6383;50.830;7.210;2023-10-09T13:42:55;11.38;;;4.95;;
12635;SDS011;6383;50.830;7.210;2023-10-09T13:45:26;9.85;;;4.80;;
12635;SDS011;6383;50.830;7.210;2023-10-09T13:47:56;10.73;;;5.17;;
12635;SDS011;6383;50.830;7.210;2023-10-09T13:50:26;8.77;;;4.93;;
12635;SDS011;6383;50.830;7.210;2023-10-09T13:53:01;10.57;;;4.78;;
12635;SDS011;6383;50.830;7.210;2023-10-09T13:55:36;10.50;;;5.78;;
12635;SDS011;6383;50.830;7.210;2023-10-09T13:58:09;9.35;;;4.80;;
12635;SDS011;6383;50.830;7.210;2023-10-09T14:00:40;10.80;;;5.53;;
12635;SDS011;6383;50.830;7.210;2023-10-09T14:03:10;14.60;;;5.25;;
12635;SDS011;6383;50.830;7.210;2023-10-09T14:05:40;12.57;;;5.20;;
12635;SDS011;6383;50.830;7.210;2023-10-09T14:08:22;14.57;;;5.57;;
12635;SDS011;6383;50.830;7.210;2023-10-09T14:10:56;10.43;;;5.18;;
12635;SDS011;6383;50.830;7.210;2023-10-09T14:13:25;13.65;;;5.72;;
12635;SDS011;6383;50.830;7.210;2023-10-09T14:15:56;13.98;;;5.55;;
12635;SDS011;6383;50.830;7.210;2023-10-09T14:18:27;6.90;;;5.10;;
12635;SDS011;6383;50.830;7.210;2023-10-09T14:21:00;9.13;;;5.10;;
12635;SDS011;6383;50.830;7.210;2023-10-09T14:23:33;12.82;;;5.72;;
12635;SDS011;6383;50.830;7.210;2023-10-09T14:26:02;10.10;;;5.70;;
12635;SDS011;6383;50.830;7.210;2023-10-09T14:28:33;12.05;;;5.38;;
12635;SDS011;6383;50.830;7.210;2023-10-09T14:31:01;12.35;;;5.43;;
12635;SDS011;6383;50.830;7.210;2023-10-09T14:33:32;11.95;;;5.45;;
12635;SDS011;6383;50.830;7.210;2023-10-09T14:36:02;11.20;;;5.60;;
12635;SDS011;6383;50.830;7.210;2023-10-09T14:38:33;12.05;;;5.60;;
12635;SDS011;6383;50.830;7.210;2023-10-09T14:41:05;11.93;;;4.70;;
12635;SDS011;6383;50.830;7.210;2023-10-09T14:43:38;13.15;;;5.30;;
12635;SDS011;6383;50.830;7.210;2023-10-09T14:46:12;6.68;;;5.18;;
12635;SDS011;6383;50.830;7.210;2023-10-09T14:48:40;17.27;;;6.07;;
12635;SDS011;6383;50.830;7.210;2023-10-09T14:51:11;14.63;;;5.68;;
12635;SDS011;6383;50.830;7.210;2023-10-09T14:53:42;9.82;;;5.10;;
12635;SDS011;6383;50.830;7.210;2023-10-09T14:56:11;9.77;;;5.33;;
12635;SDS011;6383;50.830;7.210;2023-10-09T14:58:41;14.95;;;5.43;;
12635;SDS011;6383;50.830;7.210;2023-10-09T15:01:12;11.20;;;5.40;;
12635;SDS011;6383;50.830;7.210;2023-10-09T15:03:44;8.93;;;5.25;;
12635;SDS011;6383;50.830;7.210;2023-10-09T15:06:13;7.83;;;5.27;;
12635;SDS011;6383;50.830;7.210;2023-10-09T15:08:44;12.87;;;6.00;;
12635;SDS011;6383;50.830;7.210;2023-10-09T15:11:12;11.52;;;5.45;;
12635;SDS011;6383;50.830;7.210;2023-10-09T15:13:40;10.75;;;5.53;;
12635;SDS011;6383;50.830;7.210;2023-10-09T15:16:10;11.83;;;5.57;;
12635;SDS011;6383;50.830;7.210;2023-10-09T15:18:38;12.00;;;5.70;;
12635;SDS011;6383;50.830;7.210;2023-10-09T15:21:06;11.63;;;6.32;;
12635;SDS011;6383;50.830;7.210;2023-10-09T15:23:35;9.85;;;5.65;;
12635;SDS011;6383;50.830;7.210;2023-10-09T15:26:04;10.32;;;6.00;;
12635;SDS011;6383;50.830;7.210;2023-10-09T15:28:34;12.85;;;5.97;;
12635;SDS011;6383;50.830;7.210;2023-10-09T15:31:02;12.95;;;6.03;;
12635;SDS011;6383;50.830;7.210;2023-10-09T15:33:31;10.00;;;5.57;;
12635;SDS011;6383;50.830;7.210;2023-10-09T15:36:08;10.63;;;5.78;;
12635;SDS011;6383;50.830;7.210;2023-10-09T15:38:37;9.57;;;5.57;;
12635;SDS011;6383;50.830;7.210;2023-10-09T15:41:08;11.85;;;5.47;;
12635;SDS011;6383;50.830;7.210;2023-10-09T15:43:37;12.07;;;5.55;;